This is the latest recevied weather packets stored in our database for station/object OE6ACM-14. If no packets are shown the sender has not sent any weather packets the latest 10 day(s).
| Time | Temp. | Humidity | Pressure | Rain* | Wind** | Luminosity | Snow |
|---|---|---|---|---|---|---|---|
| 1777440797 | 6.11° C | 71% | 931.4 hPa | - | - | - | - |
| 1777440497 | 6.67° C | 67% | 931.2 hPa | - | - | - | - |
| 1777440197 | 7.22° C | 63% | 931.1 hPa | - | - | - | - |
| 1777439897 | 7.78° C | 60% | 930.8 hPa | - | - | - | - |
| 1777439597 | 8.33° C | 56% | 930.7 hPa | - | - | - | - |
| 1777439297 | 8.89° C | 53% | 930.6 hPa | - | - | - | - |
| 1777438997 | 8.89° C | 50% | 930.6 hPa | - | - | - | - |
| 1777438697 | 8.89° C | 50% | 930.5 hPa | - | - | - | - |
| 1777438397 | 8.89° C | 50% | 930.4 hPa | - | - | - | - |
| 1777438097 | 9.44° C | 50% | 930.4 hPa | - | - | - | - |
| 1777437797 | 9.44° C | 50% | 930.4 hPa | - | - | - | - |
| 1777437497 | 9.44° C | 51% | 930.4 hPa | - | - | - | - |
| 1777437197 | 8.89° C | 51% | 930.3 hPa | - | - | - | - |
| 1777436897 | 8.89° C | 51% | 930.3 hPa | - | - | - | - |
| 1777436597 | 8.89° C | 52% | 930.3 hPa | - | - | - | - |
| 1777436297 | 8.89° C | 53% | 930.2 hPa | - | - | - | - |
| 1777435997 | 8.89° C | 51% | 930.2 hPa | - | - | - | - |
| 1777435697 | 8.89° C | 52% | 930.2 hPa | - | - | - | - |
| 1777435397 | 8.89° C | 51% | 930.2 hPa | - | - | - | - |
| 1777435097 | 8.89° C | 50% | 930.2 hPa | - | - | - | - |
| 1777434797 | 8.89° C | 51% | 930.2 hPa | - | - | - | - |
| 1777434497 | 8.89° C | 51% | 930 hPa | - | - | - | - |
| 1777434197 | 8.89° C | 52% | 930 hPa | - | - | - | - |
| 1777433897 | 8.89° C | 52% | 930.1 hPa | - | - | - | - |
| 1777433597 | 8.89° C | 50% | 930.1 hPa | - | - | - | - |
* Rain since midnight (hover to see other rain measurements)
** Current wind speed in m/s (hover to see current wind gust speed)